Time;durP1;ratioP1;P1;durP2;ratioP2;P2;SDS_P1;SDS_P2;PMS_P1;PMS_P2;Temp;Humidity;BMP_temperature;BMP_pressure;BME280_temperature;BME280_humidity;BME280_pressure;Samples;Min_cycle;Max_cycle;Signal;HPM_P1;HPM_P2
2023/07/23 00:02:01;;;;;;;9.43;2.58;;;;;;;;;;5023042;28;20042;-67
2023/07/23 00:04:29;;;;;;;10.88;2.70;;;;;;;;;;5013504;28;20026;-62
2023/07/23 00:06:56;;;;;;;9.32;2.42;;;;;;;;;;5013489;28;20040;-63
2023/07/23 00:09:23;;;;;;;19.80;4.95;;;;;;;;;;5012380;28;20072;-63
2023/07/23 00:11:50;;;;;;;20.48;4.53;;;;;;;;;;5030794;28;20021;-62
2023/07/23 00:14:17;;;;;;;25.60;4.93;;;;;;;;;;5030715;28;20116;-62
2023/07/23 00:16:44;;;;;;;15.27;4.28;;;;;;;;;;5011411;28;20080;-60
2023/07/23 00:19:19;;;;;;;18.77;3.60;;;;;;;;;;5011242;28;20040;-61
2023/07/23 00:21:49;;;;;;;23.35;4.47;;;;;;;;;;5012723;28;20034;-63
2023/07/23 00:24:17;;;;;;;19.38;4.53;;;;;;;;;;5031107;28;20388;-55
2023/07/23 00:26:44;;;;;;;17.38;4.68;;;;;;;;;;5015768;28;20057;-63
2023/07/23 00:29:12;;;;;;;25.63;5.10;;;;;;;;;;5013039;28;20036;-64
2023/07/23 00:31:39;;;;;;;31.38;4.55;;;;;;;;;;5016884;28;20041;-61
2023/07/23 00:34:07;;;;;;;28.15;4.90;;;;;;;;;;5013817;28;20042;-66
2023/07/23 00:36:34;;;;;;;19.52;4.30;;;;;;;;;;5013382;28;20084;-61
2023/07/23 00:39:03;;;;;;;26.55;4.70;;;;;;;;;;5029906;28;20071;-66
2023/07/23 00:41:30;;;;;;;23.50;4.97;;;;;;;;;;5026476;28;20030;-64
2023/07/23 00:43:57;;;;;;;30.83;4.70;;;;;;;;;;5018941;28;20033;-62
2023/07/23 00:46:24;;;;;;;36.95;4.70;;;;;;;;;;5012925;28;20357;-62
2023/07/23 00:48:52;;;;;;;30.60;3.80;;;;;;;;;;5025143;28;20033;-64
2023/07/23 00:51:20;;;;;;;21.88;4.43;;;;;;;;;;5034683;28;20434;-66
2023/07/23 00:53:47;;;;;;;22.13;4.22;;;;;;;;;;5016627;28;20030;-63
2023/07/23 00:56:14;;;;;;;27.60;4.18;;;;;;;;;;5026384;28;20538;-63
2023/07/23 00:58:41;;;;;;;22.95;4.13;;;;;;;;;;5015815;28;20479;-64
2023/07/23 01:01:08;;;;;;;16.10;3.72;;;;;;;;;;5025340;28;20033;-61
2023/07/23 01:03:35;;;;;;;22.75;4.40;;;;;;;;;;5016030;28;20076;-61
2023/07/23 01:06:05;;;;;;;22.98;4.20;;;;;;;;;;5032797;28;20103;-62
2023/07/23 01:08:33;;;;;;;21.17;4.55;;;;;;;;;;5007012;28;20056;-61
2023/07/23 01:11:01;;;;;;;22.45;4.20;;;;;;;;;;5018533;28;20033;-62
2023/07/23 01:13:29;;;;;;;24.77;4.32;;;;;;;;;;5014430;28;20022;-59
2023/07/23 01:15:56;;;;;;;37.17;4.22;;;;;;;;;;5014255;28;20037;-57
2023/07/23 01:18:24;;;;;;;26.10;4.72;;;;;;;;;;5013326;28;20049;-65
2023/07/23 01:20:50;;;;;;;26.63;5.80;;;;;;;;;;5013969;28;20054;-65
2023/07/23 01:23:18;;;;;;;26.67;6.30;;;;;;;;;;5013954;28;20559;-61
2023/07/23 01:25:45;;;;;;;31.08;5.80;;;;;;;;;;5012964;28;20041;-62
2023/07/23 01:28:12;;;;;;;25.48;6.50;;;;;;;;;;5019810;28;20026;-65
2023/07/23 01:30:39;;;;;;;36.38;9.48;;;;;;;;;;5025293;28;20447;-63
2023/07/23 01:33:06;;;;;;;41.58;9.60;;;;;;;;;;5016064;28;20026;-60
2023/07/23 01:35:33;;;;;;;44.78;10.77;;;;;;;;;;5013857;28;20033;-60
2023/07/23 01:38:00;;;;;;;49.10;11.20;;;;;;;;;;5026519;28;20543;-60
2023/07/23 01:40:28;;;;;;;46.30;11.48;;;;;;;;;;5012362;28;20033;-60
2023/07/23 01:42:55;;;;;;;41.17;12.48;;;;;;;;;;5025551;28;20143;-60
2023/07/23 01:45:22;;;;;;;46.13;12.80;;;;;;;;;;5013774;28;20032;-60
2023/07/23 01:47:49;;;;;;;46.60;11.98;;;;;;;;;;5012479;28;20392;-60
2023/07/23 01:50:16;;;;;;;47.95;13.27;;;;;;;;;;5013729;28;20428;-60
2023/07/23 01:52:43;;;;;;;44.38;13.20;;;;;;;;;;5013766;28;20026;-59
2023/07/23 01:55:10;;;;;;;45.22;13.63;;;;;;;;;;5013563;28;20029;-60
2023/07/23 01:57:37;;;;;;;51.38;13.93;;;;;;;;;;5013269;28;20042;-61
2023/07/23 02:00:04;;;;;;;44.35;13.85;;;;;;;;;;5028096;28;20099;-59
2023/07/23 02:02:32;;;;;;;40.72;13.68;;;;;;;;;;5012219;28;20056;-59
2023/07/23 02:04:59;;;;;;;48.35;14.20;;;;;;;;;;5011333;28;20033;-60
2023/07/23 02:07:26;;;;;;;39.28;12.90;;;;;;;;;;5013031;28;20035;-60
2023/07/23 02:09:53;;;;;;;38.38;13.13;;;;;;;;;;5013067;28;20030;-60
2023/07/23 02:12:20;;;;;;;38.80;13.10;;;;;;;;;;5012061;28;20026;-59
2023/07/23 02:14:47;;;;;;;38.25;13.23;;;;;;;;;;5013185;28;20033;-60
2023/07/23 02:17:14;;;;;;;40.92;13.05;;;;;;;;;;5011712;28;20136;-59
2023/07/23 02:19:41;;;;;;;39.13;12.85;;;;;;;;;;5012612;28;20030;-61
2023/07/23 02:22:08;;;;;;;46.03;14.13;;;;;;;;;;5013107;28;20034;-61
2023/07/23 02:24:36;;;;;;;43.05;12.68;;;;;;;;;;5012846;28;20034;-61
2023/07/23 02:27:04;;;;;;;36.83;12.77;;;;;;;;;;5012709;28;20037;-59
2023/07/23 02:29:31;;;;;;;41.85;12.90;;;;;;;;;;5012695;28;20093;-65
2023/07/23 02:31:58;;;;;;;42.75;13.15;;;;;;;;;;5014547;28;20038;-66
2023/07/23 02:34:25;;;;;;;40.58;13.52;;;;;;;;;;5019871;28;20124;-65
2023/07/23 02:36:52;;;;;;;43.15;12.75;;;;;;;;;;5028636;28;20109;-64
2023/07/23 02:39:19;;;;;;;39.45;12.55;;;;;;;;;;5025452;28;20242;-63
2023/07/23 02:41:46;;;;;;;38.00;12.68;;;;;;;;;;5012837;28;20044;-65
2023/07/23 02:44:13;;;;;;;42.60;12.38;;;;;;;;;;5013156;28;20041;-64
2023/07/23 02:46:40;;;;;;;34.47;11.65;;;;;;;;;;5011750;28;20022;-63
2023/07/23 02:49:07;;;;;;;28.00;10.50;;;;;;;;;;5011186;28;20040;-61
2023/07/23 02:51:34;;;;;;;30.38;10.90;;;;;;;;;;5011761;28;20022;-60
2023/07/23 02:54:01;;;;;;;28.15;9.55;;;;;;;;;;5029730;28;20029;-60
2023/07/23 02:56:28;;;;;;;29.27;10.02;;;;;;;;;;5031794;28;20045;-60
2023/07/23 02:58:55;;;;;;;33.10;11.48;;;;;;;;;;5028634;28;20120;-60
2023/07/23 03:01:22;;;;;;;28.10;10.07;;;;;;;;;;5031726;28;20037;-60
2023/07/23 03:03:50;;;;;;;27.05;10.02;;;;;;;;;;5031048;28;20542;-61
2023/07/23 03:06:17;;;;;;;27.35;10.25;;;;;;;;;;5031251;28;20707;-60
2023/07/23 03:08:44;;;;;;;27.92;9.95;;;;;;;;;;5028082;28;20029;-61
2023/07/23 03:11:11;;;;;;;26.42;9.38;;;;;;;;;;5029247;28;20471;-60
2023/07/23 03:13:38;;;;;;;28.83;9.45;;;;;;;;;;5027284;28;20025;-62
2023/07/23 03:16:05;;;;;;;28.05;9.90;;;;;;;;;;5013050;28;20033;-62
2023/07/23 03:18:32;;;;;;;27.25;9.30;;;;;;;;;;5030410;28;20033;-62
2023/07/23 03:20:59;;;;;;;28.10;9.40;;;;;;;;;;5030798;28;20032;-62
2023/07/23 03:23:26;;;;;;;28.13;8.63;;;;;;;;;;5012785;28;20037;-61
2023/07/23 03:25:53;;;;;;;26.85;9.43;;;;;;;;;;5030409;28;20621;-63
2023/07/23 03:28:21;;;;;;;27.13;8.75;;;;;;;;;;5030122;28;20025;-63
2023/07/23 03:30:48;;;;;;;23.75;8.98;;;;;;;;;;5031031;28;20061;-59
2023/07/23 03:33:15;;;;;;;28.38;8.48;;;;;;;;;;5030151;28;20053;-59
2023/07/23 03:35:42;;;;;;;28.73;9.05;;;;;;;;;;5027999;28;21483;-59
2023/07/23 03:38:11;;;;;;;25.10;8.18;;;;;;;;;;5028608;28;20033;-59
2023/07/23 03:40:38;;;;;;;23.52;8.02;;;;;;;;;;5030160;28;20029;-58
2023/07/23 03:43:29;;;;;;;22.83;8.38;;;;;;;;;;5029793;28;20029;-60
2023/07/23 03:45:56;;;;;;;23.38;7.85;;;;;;;;;;5028214;28;20516;-59
2023/07/23 03:48:25;;;;;;;21.10;7.38;;;;;;;;;;5030199;28;20033;-58
2023/07/23 03:50:52;;;;;;;19.85;7.50;;;;;;;;;;5030782;28;20056;-58
2023/07/23 03:53:19;;;;;;;18.55;7.28;;;;;;;;;;5031103;28;20543;-60
2023/07/23 03:55:46;;;;;;;19.55;7.47;;;;;;;;;;5030389;28;20570;-59
2023/07/23 03:58:13;;;;;;;16.33;6.82;;;;;;;;;;5012431;28;20045;-58
2023/07/23 04:00:41;;;;;;;16.48;6.50;;;;;;;;;;5011675;28;20026;-58
2023/07/23 04:03:08;;;;;;;20.35;6.78;;;;;;;;;;4993751;28;20041;-58
2023/07/23 04:05:35;;;;;;;19.17;6.63;;;;;;;;;;4993705;28;20080;-58
2023/07/23 04:08:02;;;;;;;14.90;6.05;;;;;;;;;;5011688;28;20037;-58
2023/07/23 04:10:29;;;;;;;19.27;6.28;;;;;;;;;;5011645;28;20036;-58
2023/07/23 04:12:56;;;;;;;14.00;6.25;;;;;;;;;;5011711;28;20068;-58
2023/07/23 04:15:23;;;;;;;13.13;5.85;;;;;;;;;;5011811;28;20037;-58
2023/07/23 04:17:50;;;;;;;14.15;5.40;;;;;;;;;;5011542;28;20038;-59
2023/07/23 04:20:17;;;;;;;15.70;5.93;;;;;;;;;;5011707;28;20033;-59
2023/07/23 04:22:44;;;;;;;17.45;6.45;;;;;;;;;;5011500;28;20508;-58
2023/07/23 04:25:11;;;;;;;12.07;4.95;;;;;;;;;;5011785;28;20447;-60
2023/07/23 04:27:38;;;;;;;13.63;5.20;;;;;;;;;;5022076;28;20040;-59
2023/07/23 04:30:06;;;;;;;9.07;4.80;;;;;;;;;;5031166;28;20041;-60
2023/07/23 04:32:33;;;;;;;10.40;4.88;;;;;;;;;;5031336;28;20029;-59
2023/07/23 04:35:00;;;;;;;12.45;5.45;;;;;;;;;;5013063;28;20069;-59
2023/07/23 04:37:28;;;;;;;12.40;4.70;;;;;;;;;;5031012;28;20539;-59
2023/07/23 04:39:55;;;;;;;11.82;4.32;;;;;;;;;;5031163;28;20033;-60
2023/07/23 04:42:22;;;;;;;11.25;4.53;;;;;;;;;;5030988;28;20025;-58
2023/07/23 04:44:49;;;;;;;11.57;5.10;;;;;;;;;;5031216;28;20550;-57
2023/07/23 04:47:16;;;;;;;9.85;4.43;;;;;;;;;;5031115;28;20037;-59
2023/07/23 04:49:43;;;;;;;7.78;4.22;;;;;;;;;;5031021;28;20032;-60
2023/07/23 04:52:10;;;;;;;10.43;3.85;;;;;;;;;;5031082;28;20060;-60
2023/07/23 04:54:37;;;;;;;9.48;4.25;;;;;;;;;;5031079;28;20021;-60
2023/07/23 04:57:04;;;;;;;10.63;4.18;;;;;;;;;;5031164;28;20045;-60
2023/07/23 04:59:31;;;;;;;9.07;4.22;;;;;;;;;;5031043;28;20084;-59
2023/07/23 05:01:58;;;;;;;8.35;4.18;;;;;;;;;;5031161;28;20049;-58
2023/07/23 05:04:25;;;;;;;8.65;4.25;;;;;;;;;;5031038;28;20030;-59
2023/07/23 05:06:52;;;;;;;8.02;3.75;;;;;;;;;;5013324;28;20376;-59
2023/07/23 05:09:19;;;;;;;8.52;3.45;;;;;;;;;;5030934;28;20087;-58
2023/07/23 05:11:46;;;;;;;10.98;4.10;;;;;;;;;;5031088;28;20021;-60
2023/07/23 05:14:13;;;;;;;7.85;3.83;;;;;;;;;;5030980;28;20445;-60
2023/07/23 05:16:40;;;;;;;9.27;3.38;;;;;;;;;;5033909;28;20036;-59
2023/07/23 05:19:07;;;;;;;7.78;3.63;;;;;;;;;;5034448;28;20029;-60
2023/07/23 05:21:36;;;;;;;6.50;3.13;;;;;;;;;;5034440;28;20049;-59
2023/07/23 05:24:04;;;;;;;6.50;2.72;;;;;;;;;;5034433;28;20502;-59
2023/07/23 05:26:31;;;;;;;5.47;2.58;;;;;;;;;;5034413;28;20040;-60
2023/07/23 05:28:58;;;;;;;9.48;3.40;;;;;;;;;;5034302;28;20173;-58
2023/07/23 05:31:25;;;;;;;6.88;2.90;;;;;;;;;;5034297;28;20033;-58
2023/07/23 05:33:52;;;;;;;7.60;3.20;;;;;;;;;;5034100;28;20061;-59
2023/07/23 05:36:19;;;;;;;7.40;3.00;;;;;;;;;;5034069;28;20450;-59
2023/07/23 05:38:45;;;;;;;9.25;2.90;;;;;;;;;;5034109;28;20391;-59
2023/07/23 05:41:12;;;;;;;6.60;2.50;;;;;;;;;;5034112;28;20452;-59
2023/07/23 05:43:40;;;;;;;5.35;2.80;;;;;;;;;;5029074;28;20029;-59
2023/07/23 05:46:08;;;;;;;4.70;2.33;;;;;;;;;;5014303;28;20034;-58
2023/07/23 05:48:35;;;;;;;5.65;2.78;;;;;;;;;;5014085;28;20044;-61
2023/07/23 05:51:02;;;;;;;5.88;2.67;;;;;;;;;;5014115;28;20532;-58
2023/07/23 05:53:29;;;;;;;5.25;2.60;;;;;;;;;;5013951;28;20017;-59
2023/07/23 05:55:56;;;;;;;4.10;2.30;;;;;;;;;;5014042;28;20512;-59
2023/07/23 05:58:23;;;;;;;4.05;2.20;;;;;;;;;;5013868;28;20053;-59
2023/07/23 06:00:50;;;;;;;4.68;2.15;;;;;;;;;;5013739;28;20044;-59
2023/07/23 06:03:17;;;;;;;4.05;2.05;;;;;;;;;;5033581;28;20484;-58
2023/07/23 06:05:44;;;;;;;4.05;1.90;;;;;;;;;;5033676;28;20021;-58
2023/07/23 06:08:11;;;;;;;6.38;2.55;;;;;;;;;;5033428;28;20041;-59
2023/07/23 06:10:38;;;;;;;4.65;1.85;;;;;;;;;;5015685;28;20033;-59
2023/07/23 06:13:05;;;;;;;3.78;1.88;;;;;;;;;;5033450;28;20025;-59
2023/07/23 06:15:32;;;;;;;4.60;2.20;;;;;;;;;;5015549;28;20053;-58
2023/07/23 06:17:59;;;;;;;3.42;1.75;;;;;;;;;;5033148;28;20491;-58
2023/07/23 06:20:26;;;;;;;4.43;2.17;;;;;;;;;;5033349;28;20507;-59
2023/07/23 06:22:54;;;;;;;5.03;1.83;;;;;;;;;;5032988;28;20075;-60
2023/07/23 06:25:21;;;;;;;4.22;1.95;;;;;;;;;;5033272;28;20705;-58
2023/07/23 06:27:48;;;;;;;3.53;1.67;;;;;;;;;;5032311;28;20399;-59
2023/07/23 06:30:15;;;;;;;3.05;1.63;;;;;;;;;;5033124;28;20112;-59
2023/07/23 06:32:42;;;;;;;4.50;1.75;;;;;;;;;;5033011;28;20026;-59
2023/07/23 06:35:10;;;;;;;3.70;2.03;;;;;;;;;;5032823;28;20080;-58
2023/07/23 06:37:40;;;;;;;4.43;2.00;;;;;;;;;;5032822;28;20045;-60
2023/07/23 06:40:08;;;;;;;2.83;1.45;;;;;;;;;;5033043;28;20441;-59
2023/07/23 06:42:35;;;;;;;4.43;1.70;;;;;;;;;;5015028;28;20057;-59
2023/07/23 06:45:02;;;;;;;2.65;1.30;;;;;;;;;;5032916;28;20026;-60
2023/07/23 06:47:29;;;;;;;2.03;1.30;;;;;;;;;;5032731;28;20048;-59
2023/07/23 06:49:55;;;;;;;3.63;1.33;;;;;;;;;;5032716;28;20044;-59
2023/07/23 06:52:23;;;;;;;5.50;1.95;;;;;;;;;;5032719;28;20538;-60
2023/07/23 06:54:49;;;;;;;2.63;1.23;;;;;;;;;;5032699;28;20026;-58
2023/07/23 06:57:16;;;;;;;4.82;1.35;;;;;;;;;;5032460;28;20407;-60
2023/07/23 06:59:46;;;;;;;3.40;1.60;;;;;;;;;;5032543;28;20033;-59
2023/07/23 07:02:13;;;;;;;2.55;1.40;;;;;;;;;;5032614;28;20029;-58
2023/07/23 07:04:40;;;;;;;2.65;1.50;;;;;;;;;;5032498;28;20104;-59
2023/07/23 07:07:07;;;;;;;2.63;1.20;;;;;;;;;;5032420;28;20094;-59
2023/07/23 07:09:34;;;;;;;2.63;1.45;;;;;;;;;;5032187;28;20029;-59
2023/07/23 07:12:01;;;;;;;2.90;1.20;;;;;;;;;;5032310;28;20071;-57
2023/07/23 07:14:28;;;;;;;4.03;1.33;;;;;;;;;;5032414;28;20399;-59
2023/07/23 07:16:55;;;;;;;2.22;1.30;;;;;;;;;;5032138;28;20033;-59
2023/07/23 07:19:22;;;;;;;2.33;1.25;;;;;;;;;;5032004;28;20403;-59
2023/07/23 07:21:50;;;;;;;2.20;1.23;;;;;;;;;;5032161;28;20044;-59
2023/07/23 07:24:18;;;;;;;2.97;1.30;;;;;;;;;;5014377;28;20048;-58
2023/07/23 07:26:45;;;;;;;3.38;1.20;;;;;;;;;;5014741;28;20391;-59
2023/07/23 07:29:12;;;;;;;1.38;1.00;;;;;;;;;;5031997;28;20100;-59
2023/07/23 07:31:39;;;;;;;2.40;1.10;;;;;;;;;;5032057;28;20114;-60
2023/07/23 07:34:06;;;;;;;2.38;1.00;;;;;;;;;;5014082;28;20056;-59
2023/07/23 07:36:33;;;;;;;2.42;1.08;;;;;;;;;;5031903;28;20032;-58
2023/07/23 07:39:00;;;;;;;1.25;0.80;;;;;;;;;;5031782;28;20077;-59
2023/07/23 07:41:27;;;;;;;2.08;1.05;;;;;;;;;;5031877;28;20397;-59
2023/07/23 07:43:54;;;;;;;2.40;1.20;;;;;;;;;;5031905;28;20022;-59
2023/07/23 07:46:21;;;;;;;1.88;0.90;;;;;;;;;;5031730;28;20104;-60
2023/07/23 07:48:48;;;;;;;1.50;0.95;;;;;;;;;;5013810;28;20087;-59
2023/07/23 07:51:15;;;;;;;0.80;0.70;;;;;;;;;;5031769;28;20104;-59
2023/07/23 07:53:42;;;;;;;2.35;1.02;;;;;;;;;;5031706;28;20092;-59
2023/07/23 07:56:17;;;;;;;1.27;0.90;;;;;;;;;;5031785;28;20029;-59
2023/07/23 07:58:45;;;;;;;1.45;0.90;;;;;;;;;;5031582;28;20041;-59
2023/07/23 08:01:12;;;;;;;1.83;1.10;;;;;;;;;;5031613;28;20025;-60
2023/07/23 08:03:40;;;;;;;1.60;0.90;;;;;;;;;;5013761;28;20033;-59
2023/07/23 08:06:07;;;;;;;2.88;0.73;;;;;;;;;;5031599;28;20025;-59
2023/07/23 08:08:35;;;;;;;1.83;0.95;;;;;;;;;;5031554;28;20056;-58
2023/07/23 08:11:04;;;;;;;2.05;0.77;;;;;;;;;;5031550;28;20025;-59
2023/07/23 08:13:31;;;;;;;1.45;0.80;;;;;;;;;;5031584;28;20080;-58
2023/07/23 08:16:00;;;;;;;1.48;0.80;;;;;;;;;;5031485;28;20111;-59
2023/07/23 08:18:27;;;;;;;1.98;0.80;;;;;;;;;;5031312;28;20677;-58
2023/07/23 08:20:57;;;;;;;1.50;0.80;;;;;;;;;;5031465;28;20053;-59
2023/07/23 08:23:25;;;;;;;1.20;0.80;;;;;;;;;;5031467;28;20025;-58
2023/07/23 08:25:54;;;;;;;2.53;1.00;;;;;;;;;;5013534;28;20442;-60
2023/07/23 08:28:28;;;;;;;1.05;0.70;;;;;;;;;;5031234;28;20104;-59
2023/07/23 08:30:56;;;;;;;2.33;0.70;;;;;;;;;;5013595;28;20120;-59
2023/07/23 08:33:26;;;;;;;1.20;0.70;;;;;;;;;;5031275;28;20037;-59
2023/07/23 08:35:53;;;;;;;1.73;0.80;;;;;;;;;;5031425;28;20029;-58
2023/07/23 08:38:20;;;;;;;1.17;0.70;;;;;;;;;;5031183;28;20468;-59
2023/07/23 08:40:50;;;;;;;4.10;0.65;;;;;;;;;;5031246;28;20036;-58
2023/07/23 08:43:35;;;;;;;1.27;0.60;;;;;;;;;;5031336;28;20030;-59
2023/07/23 08:46:02;;;;;;;1.45;0.70;;;;;;;;;;5031179;28;20108;-60
2023/07/23 08:48:51;;;;;;;2.38;0.60;;;;;;;;;;5031094;28;20029;-59
2023/07/23 08:51:18;;;;;;;0.77;0.50;;;;;;;;;;5031680;28;20487;-60
2023/07/23 08:53:45;;;;;;;1.70;0.68;;;;;;;;;;5035040;28;20029;-59
2023/07/23 08:56:12;;;;;;;0.70;0.60;;;;;;;;;;5034802;28;20041;-59
2023/07/23 08:58:40;;;;;;;1.42;0.70;;;;;;;;;;5034697;28;20541;-58
2023/07/23 09:01:08;;;;;;;1.83;0.75;;;;;;;;;;5034773;28;20472;-59
2023/07/23 09:03:35;;;;;;;1.25;0.73;;;;;;;;;;5034785;28;20579;-59
2023/07/23 09:06:03;;;;;;;0.77;0.50;;;;;;;;;;5034707;28;20052;-60
2023/07/23 09:08:30;;;;;;;1.48;0.60;;;;;;;;;;5034602;28;20033;-58
2023/07/23 09:10:57;;;;;;;0.55;0.40;;;;;;;;;;5034594;28;20033;-59
2023/07/23 09:13:32;;;;;;;2.50;0.50;;;;;;;;;;5034550;28;20029;-60
2023/07/23 09:15:59;;;;;;;1.80;0.60;;;;;;;;;;5034554;28;20036;-59
2023/07/23 09:18:26;;;;;;;0.77;0.50;;;;;;;;;;5034401;28;20061;-60
2023/07/23 09:20:53;;;;;;;1.20;0.60;;;;;;;;;;5034547;28;20036;-59
2023/07/23 09:23:20;;;;;;;1.00;0.50;;;;;;;;;;5034495;28;20036;-59
2023/07/23 09:25:47;;;;;;;1.13;0.50;;;;;;;;;;5034356;28;20030;-60
2023/07/23 09:28:24;;;;;;;0.88;0.40;;;;;;;;;;5034223;28;20037;-60
2023/07/23 09:30:55;;;;;;;0.82;0.60;;;;;;;;;;5034339;28;20059;-59
2023/07/23 09:33:22;;;;;;;2.05;0.55;;;;;;;;;;5034071;28;20037;-59
2023/07/23 09:35:49;;;;;;;1.75;0.70;;;;;;;;;;5034246;28;20392;-59
2023/07/23 09:38:16;;;;;;;0.90;0.55;;;;;;;;;;5033999;28;20766;-58
2023/07/23 09:40:44;;;;;;;0.80;0.40;;;;;;;;;;5034099;28;20029;-60
2023/07/23 09:43:11;;;;;;;0.60;0.55;;;;;;;;;;5033865;28;20037;-59
2023/07/23 09:45:39;;;;;;;0.70;0.50;;;;;;;;;;5034034;28;20029;-58
2023/07/23 09:48:07;;;;;;;1.10;0.60;;;;;;;;;;5033759;28;20036;-60
2023/07/23 09:50:35;;;;;;;1.15;0.50;;;;;;;;;;5033858;28;20029;-59
2023/07/23 09:53:02;;;;;;;1.42;0.52;;;;;;;;;;5033857;28;20044;-59
2023/07/23 09:55:30;;;;;;;0.90;0.50;;;;;;;;;;5033611;28;20033;-61
2023/07/23 09:57:57;;;;;;;1.55;0.73;;;;;;;;;;5033607;28;20074;-59
2023/07/23 10:00:24;;;;;;;1.73;0.60;;;;;;;;;;5033901;28;20029;-60
2023/07/23 10:02:51;;;;;;;0.80;0.45;;;;;;;;;;5032426;28;20538;-59
2023/07/23 10:05:19;;;;;;;0.80;0.50;;;;;;;;;;5033693;28;20029;-59
2023/07/23 10:07:47;;;;;;;1.00;0.43;;;;;;;;;;5033494;28;20480;-60
2023/07/23 10:10:15;;;;;;;0.75;0.50;;;;;;;;;;5033537;28;20076;-58
2023/07/23 10:12:42;;;;;;;0.60;0.45;;;;;;;;;;5033482;28;20092;-60
2023/07/23 10:15:10;;;;;;;0.57;0.45;;;;;;;;;;5033382;28;20034;-58
2023/07/23 10:17:41;;;;;;;1.30;0.55;;;;;;;;;;5033326;28;20034;-60
2023/07/23 10:20:11;;;;;;;0.68;0.50;;;;;;;;;;5033460;28;20068;-59
2023/07/23 10:22:39;;;;;;;0.70;0.40;;;;;;;;;;5033377;28;20026;-58
2023/07/23 10:25:25;;;;;;;1.05;0.55;;;;;;;;;;5033132;28;20036;-59
2023/07/23 10:28:02;;;;;;;1.83;0.50;;;;;;;;;;5032967;28;20053;-59
2023/07/23 10:30:29;;;;;;;1.50;0.50;;;;;;;;;;5033200;28;20033;-60
2023/07/23 10:33:23;;;;;;;0.90;0.45;;;;;;;;;;5032963;28;20034;-59
2023/07/23 10:35:53;;;;;;;2.10;0.45;;;;;;;;;;5030321;28;20493;-58
2023/07/23 10:38:30;;;;;;;0.70;0.50;;;;;;;;;;5032863;28;20048;-60
2023/07/23 10:40:57;;;;;;;1.20;0.63;;;;;;;;;;5032740;28;20033;-59
2023/07/23 10:43:25;;;;;;;0.68;0.50;;;;;;;;;;5032922;28;20029;-58
2023/07/23 10:46:02;;;;;;;0.90;0.47;;;;;;;;;;5032907;28;20033;-58
2023/07/23 10:48:49;;;;;;;1.02;0.47;;;;;;;;;;5014717;28;20053;-58
2023/07/23 10:51:20;;;;;;;1.15;0.60;;;;;;;;;;5032776;28;20108;-59
2023/07/23 10:54:01;;;;;;;0.93;0.52;;;;;;;;;;5032763;28;20731;-58
2023/07/23 10:56:37;;;;;;;1.95;0.80;;;;;;;;;;5032582;28;20033;-60
2023/07/23 10:59:08;;;;;;;0.82;0.47;;;;;;;;;;5014769;28;20029;-61
2023/07/23 11:01:36;;;;;;;1.15;0.50;;;;;;;;;;5032264;28;20048;-59
2023/07/23 11:04:12;;;;;;;1.45;0.40;;;;;;;;;;5032927;28;20033;-58
2023/07/23 11:06:41;;;;;;;0.95;0.50;;;;;;;;;;5032298;28;20075;-60
2023/07/23 11:09:11;;;;;;;2.15;0.60;;;;;;;;;;5032485;28;20029;-59
2023/07/23 11:11:40;;;;;;;1.02;0.50;;;;;;;;;;5032454;28;20029;-59
2023/07/23 11:14:20;;;;;;;0.98;0.43;;;;;;;;;;5032103;28;20486;-59
2023/07/23 11:16:51;;;;;;;2.55;0.70;;;;;;;;;;5032064;28;20128;-59
2023/07/23 11:19:19;;;;;;;1.75;0.63;;;;;;;;;;5032244;28;20037;-59
2023/07/23 11:21:50;;;;;;;1.77;0.80;;;;;;;;;;5032111;28;20059;-58
2023/07/23 11:24:18;;;;;;;1.88;0.60;;;;;;;;;;5032225;28;20026;-59
2023/07/23 11:26:45;;;;;;;2.05;0.60;;;;;;;;;;5032072;28;20741;-59
2023/07/23 11:29:12;;;;;;;1.77;0.80;;;;;;;;;;5032045;28;20033;-59
2023/07/23 11:31:40;;;;;;;0.80;0.50;;;;;;;;;;5032079;28;20035;-58
2023/07/23 11:34:07;;;;;;;1.02;0.50;;;;;;;;;;5031835;28;20511;-59
2023/07/23 11:36:35;;;;;;;1.77;0.77;;;;;;;;;;5031875;28;20049;-60
2023/07/23 11:39:02;;;;;;;0.73;0.60;;;;;;;;;;5031598;28;20104;-60
2023/07/23 11:41:32;;;;;;;3.33;0.90;;;;;;;;;;5014418;28;20137;-59
2023/07/23 11:44:03;;;;;;;1.48;0.57;;;;;;;;;;5031896;28;20499;-59
2023/07/23 11:46:38;;;;;;;2.38;0.80;;;;;;;;;;5031719;28;20491;-60
2023/07/23 11:49:09;;;;;;;1.42;0.80;;;;;;;;;;5029323;28;20033;-59
2023/07/23 11:51:37;;;;;;;1.20;0.60;;;;;;;;;;5012157;28;20468;-59
2023/07/23 11:54:07;;;;;;;1.52;0.70;;;;;;;;;;5011986;28;20025;-59
2023/07/23 11:56:39;;;;;;;1.02;0.60;;;;;;;;;;5011743;28;20037;-59
2023/07/23 11:59:07;;;;;;;2.22;0.70;;;;;;;;;;5012059;28;20030;-58
2023/07/23 12:01:35;;;;;;;3.28;0.70;;;;;;;;;;5011916;28;20400;-59
2023/07/23 12:04:03;;;;;;;2.13;0.77;;;;;;;;;;4994231;28;20084;-58
2023/07/23 12:06:31;;;;;;;1.48;0.93;;;;;;;;;;5011833;28;20041;-59
2023/07/23 12:08:58;;;;;;;2.20;0.82;;;;;;;;;;5011797;28;20030;-59
2023/07/23 12:11:28;;;;;;;1.58;0.90;;;;;;;;;;4994280;28;20030;-58
2023/07/23 12:13:56;;;;;;;1.73;0.85;;;;;;;;;;5011919;28;20065;-60
2023/07/23 12:16:40;;;;;;;1.67;0.88;;;;;;;;;;5011903;28;20526;-59
2023/07/23 12:19:07;;;;;;;1.30;0.82;;;;;;;;;;5011759;28;20069;-59
2023/07/23 12:21:35;;;;;;;1.10;0.80;;;;;;;;;;5011875;28;20033;-58
2023/07/23 12:24:14;;;;;;;2.13;0.82;;;;;;;;;;5011794;28;20033;-58
2023/07/23 12:26:41;;;;;;;3.92;1.00;;;;;;;;;;5014986;28;20113;-59
2023/07/23 12:29:08;;;;;;;0.93;0.73;;;;;;;;;;5015664;28;20053;-60
2023/07/23 12:31:41;;;;;;;1.27;0.75;;;;;;;;;;4998046;28;20686;-58
2023/07/23 12:34:08;;;;;;;3.97;1.10;;;;;;;;;;5015318;28;20058;-59
2023/07/23 12:36:35;;;;;;;1.73;0.65;;;;;;;;;;5015452;28;20033;-59
2023/07/23 12:39:03;;;;;;;1.17;0.60;;;;;;;;;;5015438;28;20088;-59
2023/07/23 12:41:30;;;;;;;2.53;0.90;;;;;;;;;;5015493;28;20026;-58
2023/07/23 12:43:57;;;;;;;3.60;0.82;;;;;;;;;;5015522;28;20387;-60
2023/07/23 12:46:24;;;;;;;2.30;1.00;;;;;;;;;;5015352;28;20022;-60
2023/07/23 12:48:51;;;;;;;1.85;0.80;;;;;;;;;;5015307;28;20033;-59
2023/07/23 12:51:18;;;;;;;1.60;0.98;;;;;;;;;;4997664;28;20690;-58
2023/07/23 12:53:45;;;;;;;2.25;0.90;;;;;;;;;;5015278;28;20113;-58
2023/07/23 12:56:12;;;;;;;3.58;0.80;;;;;;;;;;5015247;28;20535;-58
2023/07/23 12:58:39;;;;;;;4.90;0.93;;;;;;;;;;5016622;28;20101;-59
2023/07/23 13:01:06;;;;;;;3.28;1.00;;;;;;;;;;5034911;28;20064;-59
2023/07/23 13:03:33;;;;;;;1.65;0.80;;;;;;;;;;5034720;28;20049;-60
2023/07/23 13:06:00;;;;;;;2.85;0.55;;;;;;;;;;5034211;28;20033;-58
2023/07/23 13:08:27;;;;;;;3.92;0.90;;;;;;;;;;5034365;28;20034;-59
2023/07/23 13:10:54;;;;;;;1.20;0.70;;;;;;;;;;5033989;28;20028;-60
2023/07/23 13:13:21;;;;;;;2.83;0.65;;;;;;;;;;5034337;28;20033;-59
2023/07/23 13:15:48;;;;;;;3.45;0.80;;;;;;;;;;5033886;28;20033;-59
2023/07/23 13:18:15;;;;;;;4.40;0.60;;;;;;;;;;5033779;28;20201;-59
2023/07/23 13:20:42;;;;;;;1.52;0.80;;;;;;;;;;5031314;28;20071;-58
2023/07/23 13:23:09;;;;;;;2.40;0.63;;;;;;;;;;5033417;28;20021;-58
2023/07/23 13:25:36;;;;;;;4.40;0.80;;;;;;;;;;5033310;28;20414;-58
2023/07/23 13:28:03;;;;;;;4.22;1.10;;;;;;;;;;5033221;28;20059;-59
2023/07/23 13:30:30;;;;;;;4.25;0.65;;;;;;;;;;5030255;28;20357;-59
2023/07/23 13:32:57;;;;;;;5.45;0.80;;;;;;;;;;5033352;28;20033;-59
2023/07/23 13:35:26;;;;;;;3.30;1.00;;;;;;;;;;5033702;28;20029;-59
2023/07/23 13:37:53;;;;;;;1.83;0.73;;;;;;;;;;5030877;28;20045;-60
2023/07/23 13:40:20;;;;;;;3.05;1.02;;;;;;;;;;5032975;28;20100;-59
2023/07/23 13:42:47;;;;;;;5.40;0.82;;;;;;;;;;5033340;28;20048;-58
2023/07/23 13:45:14;;;;;;;6.88;1.05;;;;;;;;;;5032261;28;20037;-59
2023/07/23 13:47:41;;;;;;;4.57;0.98;;;;;;;;;;5031672;28;20475;-58
2023/07/23 13:50:09;;;;;;;4.72;0.60;;;;;;;;;;5032923;28;20063;-58
2023/07/23 13:52:36;;;;;;;7.15;0.82;;;;;;;;;;5032244;28;20025;-57
2023/07/23 13:55:07;;;;;;;5.82;0.95;;;;;;;;;;5032186;28;20061;-60
2023/07/23 13:57:36;;;;;;;4.65;0.70;;;;;;;;;;5027802;28;20071;-58
2023/07/23 14:00:12;;;;;;;9.02;0.90;;;;;;;;;;5032523;28;20057;-58
2023/07/23 14:02:43;;;;;;;7.60;0.93;;;;;;;;;;5031511;28;20080;-58
2023/07/23 14:05:14;;;;;;;3.05;0.85;;;;;;;;;;5032097;28;20112;-59
2023/07/23 14:07:42;;;;;;;13.50;1.30;;;;;;;;;;5033018;28;20112;-57
2023/07/23 14:10:09;;;;;;;5.03;1.00;;;;;;;;;;5014843;28;20041;-62
2023/07/23 14:12:36;;;;;;;9.48;1.10;;;;;;;;;;5033072;28;20037;-62
2023/07/23 14:15:04;;;;;;;7.60;1.33;;;;;;;;;;5032871;28;20041;-63
2023/07/23 14:17:31;;;;;;;3.75;1.13;;;;;;;;;;5015401;28;20400;-62
2023/07/23 14:19:58;;;;;;;7.55;1.08;;;;;;;;;;5033468;28;20458;-62
2023/07/23 14:22:25;;;;;;;6.88;1.10;;;;;;;;;;5033313;28;20036;-62
2023/07/23 14:24:52;;;;;;;7.15;1.23;;;;;;;;;;5015624;28;20029;-62
2023/07/23 14:27:19;;;;;;;11.32;1.17;;;;;;;;;;5033230;28;20053;-62
2023/07/23 14:29:46;;;;;;;8.15;1.00;;;;;;;;;;5033276;28;20048;-62
2023/07/23 14:32:13;;;;;;;5.28;1.00;;;;;;;;;;5033232;28;20394;-62
2023/07/23 14:34:41;;;;;;;8.65;1.13;;;;;;;;;;5033064;28;20822;-62
2023/07/23 14:37:09;;;;;;;12.00;1.08;;;;;;;;;;5033017;28;20040;-62
2023/07/23 14:39:40;;;;;;;7.50;0.88;;;;;;;;;;5033087;28;20052;-62
2023/07/23 14:42:07;;;;;;;4.88;1.20;;;;;;;;;;5033033;28;20025;-62
2023/07/23 14:44:34;;;;;;;4.82;0.90;;;;;;;;;;5015243;28;20026;-62